Time;durP1;ratioP1;P1;durP2;ratioP2;P2;SDS_P1;SDS_P2;PMS_P1;PMS_P2;Temp;Humidity;BMP_temperature;BMP_pressure;BME280_temperature;BME280_humidity;BME280_pressure;Samples;Min_cycle;Max_cycle;Signal;HPM_P1;HPM_P2
2022/12/20 00:01:37;;;;;;;2.97;1.85;;;;;;;6.06;56.34;101194.03;5025377;28;20464;-72
2022/12/20 00:04:05;;;;;;;3.03;2.05;;;;;;;6.06;56.32;101183.16;5020480;28;20129;-72
2022/12/20 00:06:34;;;;;;;3.40;1.90;;;;;;;6.07;56.45;101179.47;5025537;28;20480;-72
2022/12/20 00:09:06;;;;;;;4.18;1.88;;;;;;;6.07;56.60;101179.47;5026191;28;20506;-73
2022/12/20 00:11:35;;;;;;;3.27;1.80;;;;;;;6.06;56.24;101171.41;5023597;28;20120;-72
2022/12/20 00:14:03;;;;;;;3.90;1.85;;;;;;;6.09;56.43;101164.91;5022469;28;20041;-72
2022/12/20 00:16:31;;;;;;;3.60;1.80;;;;;;;6.09;56.32;101160.34;5026125;28;20465;-72
2022/12/20 00:19:02;;;;;;;3.65;1.80;;;;;;;6.10;56.10;101153.06;5025778;28;20042;-72
2022/12/20 00:21:32;;;;;;;3.67;1.80;;;;;;;6.08;55.98;101153.16;5026194;28;20040;-72
2022/12/20 00:24:00;;;;;;;3.95;1.65;;;;;;;6.09;56.11;101156.75;5023917;28;20052;-72
2022/12/20 00:26:30;;;;;;;4.82;1.90;;;;;;;6.10;56.09;101156.66;5011341;28;20518;-72
2022/12/20 00:28:59;;;;;;;3.28;1.90;;;;;;;6.10;56.21;101161.22;5002632;28;20067;-72
2022/12/20 00:31:30;;;;;;;4.63;1.80;;;;;;;6.12;56.11;101156.56;5025893;28;20056;-72
2022/12/20 00:34:00;;;;;;;3.88;2.10;;;;;;;6.12;56.26;101162.00;5007486;28;20041;-71
2022/12/20 00:36:31;;;;;;;4.78;2.10;;;;;;;6.13;56.36;101163.72;5025628;28;20041;-71
2022/12/20 00:39:00;;;;;;;4.35;1.80;;;;;;;6.13;56.15;101166.44;4992439;28;20048;-72
2022/12/20 00:41:31;;;;;;;3.50;1.85;;;;;;;6.15;56.15;101172.66;5005897;28;20034;-72
2022/12/20 00:43:59;;;;;;;3.85;1.80;;;;;;;6.16;56.17;101166.25;5002385;28;20100;-72
2022/12/20 00:46:27;;;;;;;3.78;1.60;;;;;;;6.17;56.05;101166.16;5010254;28;20049;-72
2022/12/20 00:48:55;;;;;;;3.38;1.85;;;;;;;6.19;56.03;101174.22;5021389;28;20088;-71
2022/12/20 00:51:28;;;;;;;3.50;1.80;;;;;;;6.20;56.27;101174.09;5007807;28;20048;-70
2022/12/20 00:53:56;;;;;;;3.05;1.70;;;;;;;6.19;56.26;101168.78;5024289;28;20033;-71
2022/12/20 00:56:24;;;;;;;3.92;1.70;;;;;;;6.22;56.05;101179.44;5007385;28;20089;-71
2022/12/20 00:58:57;;;;;;;4.70;1.73;;;;;;;6.22;56.29;101180.31;5021605;28;20041;-71
2022/12/20 01:01:29;;;;;;;4.22;1.80;;;;;;;6.25;56.27;101177.41;5008302;28;20076;-70
2022/12/20 01:03:57;;;;;;;5.13;1.80;;;;;;;6.23;55.86;101173.91;5011319;28;20049;-71
2022/12/20 01:06:27;;;;;;;4.30;1.67;;;;;;;6.27;55.92;101166.47;5014947;28;20136;-71
2022/12/20 01:08:56;;;;;;;3.47;1.98;;;;;;;6.27;55.96;101164.63;5026516;28;20033;-71
2022/12/20 01:11:26;;;;;;;3.88;1.75;;;;;;;6.28;56.02;101160.88;5027343;28;20034;-71
2022/12/20 01:13:56;;;;;;;3.50;1.85;;;;;;;6.30;56.17;101155.34;5010012;28;20041;-71
2022/12/20 01:16:26;;;;;;;4.35;1.73;;;;;;;6.29;56.09;101149.06;5010297;28;20132;-71
2022/12/20 01:18:54;;;;;;;3.25;1.90;;;;;;;6.30;56.08;101149.94;5028188;28;20652;-70
2022/12/20 01:21:24;;;;;;;4.07;2.20;;;;;;;6.31;56.04;101155.28;5012439;28;20045;-71
2022/12/20 01:23:54;;;;;;;3.20;1.90;;;;;;;6.33;56.21;101160.59;5026647;28;20486;-71
2022/12/20 01:26:24;;;;;;;3.58;2.20;;;;;;;6.34;55.79;101149.66;5028676;28;20037;-71
2022/12/20 01:28:54;;;;;;;3.08;1.70;;;;;;;6.35;56.04;101145.97;5009566;28;20421;-70
2022/12/20 01:31:23;;;;;;;4.30;1.85;;;;;;;6.35;55.86;101134.22;5028359;28;20041;-71
2022/12/20 01:33:52;;;;;;;3.55;2.15;;;;;;;6.35;55.77;101143.25;5026958;28;20124;-71
2022/12/20 01:36:23;;;;;;;3.17;1.85;;;;;;;6.37;55.76;101135.84;5028267;28;20549;-71
2022/12/20 01:38:57;;;;;;;3.90;1.65;;;;;;;6.37;55.88;101134.97;5020490;28;20042;-71
2022/12/20 01:41:28;;;;;;;5.15;2.08;;;;;;;6.37;55.87;101137.69;5006874;28;20038;-71
2022/12/20 01:43:57;;;;;;;3.50;1.73;;;;;;;6.35;55.76;101139.66;5019333;28;20096;-71
2022/12/20 01:46:28;;;;;;;4.18;2.15;;;;;;;6.35;55.42;101135.09;5019072;28;20505;-71
2022/12/20 01:49:02;;;;;;;3.95;2.08;;;;;;;6.34;55.70;101136.06;5005493;28;20045;-71
2022/12/20 01:51:34;;;;;;;3.75;2.25;;;;;;;6.34;55.68;101136.06;5024394;28;20387;-71
2022/12/20 01:54:07;;;;;;;3.15;1.73;;;;;;;6.34;55.92;101124.31;5003472;28;20052;-71
2022/12/20 01:56:36;;;;;;;4.13;2.33;;;;;;;6.34;55.46;101143.34;5008369;28;20045;-71
2022/12/20 01:59:06;;;;;;;4.03;2.00;;;;;;;6.33;55.50;101142.47;5016230;28;20691;-71
2022/12/20 02:01:34;;;;;;;4.22;2.28;;;;;;;6.33;55.69;101139.75;5007808;28;20503;-71
2022/12/20 02:04:02;;;;;;;5.80;2.20;;;;;;;6.33;55.47;101139.75;5009519;28;20398;-71
2022/12/20 02:06:30;;;;;;;3.97;1.92;;;;;;;6.34;55.75;101129.75;5026967;28;20117;-71
2022/12/20 02:09:02;;;;;;;4.00;2.30;;;;;;;6.35;55.81;101126.06;5010919;28;20056;-70
2022/12/20 02:11:57;;;;;;;3.60;2.00;;;;;;;6.35;56.64;101129.66;5022812;23;20259;-70
2022/12/20 02:14:40;;;;;;;5.55;2.20;;;;;;;6.36;56.43;101125.09;5003932;28;20052;-73
2022/12/20 02:17:11;;;;;;;;;;;;;;;6.09;57.01;101110.56;5003058;28;20061;-73
2022/12/20 02:20:01;;;;;;;3.67;2.10;;;;;;;6.32;56.81;101108.09;5021099;28;19932;-73
2022/12/20 02:22:45;;;;;;;3.80;1.95;;;;;;;6.36;56.02;101109.66;5007783;28;20112;-73
2022/12/20 02:25:29;;;;;;;5.05;2.42;;;;;;;6.37;56.01;101114.09;4984815;28;20510;-73
2022/12/20 02:28:04;;;;;;;3.83;2.30;;;;;;;6.38;55.89;101109.53;4988215;28;20136;-73
2022/12/20 02:30:38;;;;;;;4.10;2.13;;;;;;;6.39;55.86;101103.13;4997349;28;20074;-73
2022/12/20 02:33:10;;;;;;;4.30;2.45;;;;;;;6.39;55.47;101105.84;5000832;28;20096;-74
2022/12/20 02:35:41;;;;;;;3.53;2.10;;;;;;;6.38;55.53;101095.94;5008008;28;20155;-73
2022/12/20 02:38:27;;;;;;;4.85;2.78;;;;;;;6.40;56.26;101096.72;4983233;28;20510;-73
2022/12/20 02:41:02;;;;;;;4.95;2.53;;;;;;;6.41;55.80;101093.00;4989994;28;20608;-73
2022/12/20 02:46:21;;;;;;;5.05;2.90;;;;;;;6.43;55.77;101096.50;4990481;28;20089;-73
2022/12/20 02:48:51;;;;;;;;;;;;;;;6.17;57.11;101100.94;4983112;28;20628;-73
2022/12/20 02:51:21;;;;;;;4.40;1.92;;;;;;;6.39;55.63;101104.00;5006799;28;19925;-73
2022/12/20 02:53:50;;;;;;;4.63;2.30;;;;;;;6.45;55.30;101113.56;5005603;28;20113;-73
2022/12/20 02:56:25;;;;;;;3.28;2.20;;;;;;;6.47;55.54;101113.47;4984961;28;20049;-73
2022/12/20 02:58:58;;;;;;;3.83;2.33;;;;;;;6.45;55.74;101109.00;4985718;28;20422;-73
2022/12/20 03:01:31;;;;;;;3.88;2.42;;;;;;;6.46;55.45;101109.88;4983724;28;20048;-74
2022/12/20 03:04:00;;;;;;;5.28;2.50;;;;;;;6.44;55.72;101111.84;4986893;28;20081;-73
2022/12/20 03:06:29;;;;;;;5.47;2.60;;;;;;;6.45;55.68;101113.56;5007317;28;20174;-74
2022/12/20 03:08:57;;;;;;;3.95;2.33;;;;;;;6.44;55.83;101117.28;4990837;28;20044;-73
2022/12/20 03:11:28;;;;;;;5.03;2.67;;;;;;;6.44;55.86;101107.28;4986694;28;20034;-73
2022/12/20 03:13:56;;;;;;;5.30;2.53;;;;;;;6.44;56.05;101114.56;4999004;28;20034;-75
2022/12/20 03:16:24;;;;;;;4.05;2.45;;;;;;;6.44;55.66;101126.31;4982744;28;20486;-74
2022/12/20 03:18:54;;;;;;;5.25;2.55;;;;;;;6.44;55.61;101123.59;4985733;28;20096;-73
2022/12/20 03:21:22;;;;;;;4.85;2.40;;;;;;;6.41;55.54;101118.34;4986048;28;20153;-74
2022/12/20 03:23:50;;;;;;;4.50;2.70;;;;;;;6.41;56.07;101115.63;5005457;28;20721;-73
2022/12/20 03:26:18;;;;;;;4.07;2.58;;;;;;;6.39;55.96;101117.59;4988960;28;20050;-74
2022/12/20 03:28:52;;;;;;;5.20;2.60;;;;;;;6.37;56.03;101116.81;4989038;28;20108;-73
2022/12/20 03:31:22;;;;;;;5.93;2.88;;;;;;;6.36;55.74;101116.94;4990237;28;20076;-74
2022/12/20 03:33:55;;;;;;;4.25;2.67;;;;;;;6.35;56.11;101113.34;4989368;28;20403;-74
2022/12/20 03:36:23;;;;;;;4.70;2.67;;;;;;;6.33;56.08;101125.28;4984284;28;20465;-73
2022/12/20 03:38:55;;;;;;;4.28;2.58;;;;;;;6.29;56.12;101118.28;4988714;28;20045;-74
2022/12/20 03:41:25;;;;;;;4.82;2.70;;;;;;;6.29;56.01;101119.16;4980924;28;20043;-73
2022/12/20 03:43:54;;;;;;;4.47;2.78;;;;;;;6.28;56.17;101119.28;4985198;28;20525;-74
2022/12/20 03:46:22;;;;;;;4.22;2.50;;;;;;;6.25;56.27;101120.34;4980328;28;20046;-74
2022/12/20 03:48:51;;;;;;;4.97;3.00;;;;;;;6.23;56.37;101114.13;4985227;28;20057;-73
2022/12/20 03:51:20;;;;;;;4.85;2.88;;;;;;;6.23;56.46;101122.28;4982545;28;20052;-73
2022/12/20 03:53:48;;;;;;;3.80;2.67;;;;;;;6.20;56.31;101119.75;5008146;28;20038;-73
2022/12/20 03:56:18;;;;;;;5.28;2.78;;;;;;;6.19;56.33;101120.75;4984052;28;20219;-73
2022/12/20 03:58:46;;;;;;;4.47;2.95;;;;;;;6.18;56.15;101112.69;4988423;28;20061;-74
2022/12/20 04:01:20;;;;;;;5.40;3.30;;;;;;;6.17;56.92;101117.25;4984403;28;20052;-73
2022/12/20 04:03:50;;;;;;;4.22;2.40;;;;;;;6.15;56.39;101118.31;4986882;28;20038;-73
2022/12/20 04:06:20;;;;;;;4.47;2.80;;;;;;;6.14;56.17;101113.84;5006393;28;20081;-72
2022/12/20 04:08:49;;;;;;;4.78;2.67;;;;;;;6.11;56.17;101125.81;5007617;28;20046;-72
2022/12/20 04:11:24;;;;;;;4.82;2.90;;;;;;;6.05;56.08;101110.75;4990178;28;20088;-72
2022/12/20 04:14:11;;;;;;;3.97;2.70;;;;;;;5.99;55.84;101116.59;4988429;28;20112;-72
2022/12/20 04:16:39;;;;;;;5.25;2.92;;;;;;;5.97;55.73;101104.94;4987850;28;20053;-72
2022/12/20 04:19:09;;;;;;;4.75;2.60;;;;;;;5.92;55.67;101115.25;4987900;28;20053;-72
2022/12/20 04:21:42;;;;;;;4.68;3.00;;;;;;;5.88;56.06;101104.66;4983506;28;20049;-72
2022/12/20 04:24:11;;;;;;;5.35;3.05;;;;;;;5.84;55.60;101111.28;4986486;28;20446;-72
2022/12/20 04:26:45;;;;;;;4.22;2.55;;;;;;;5.78;55.92;101109.84;4988125;28;20054;-72
2022/12/20 04:29:15;;;;;;;4.28;2.65;;;;;;;5.76;55.68;101092.75;4985210;28;20050;-72
2022/12/20 04:31:44;;;;;;;6.32;2.90;;;;;;;5.71;56.00;101100.31;4989117;28;20042;-72
2022/12/20 04:34:12;;;;;;;6.32;3.10;;;;;;;5.68;55.98;101104.09;4985287;28;20410;-73
2022/12/20 04:36:41;;;;;;;5.80;2.92;;;;;;;5.66;56.13;101102.44;4986465;28;20041;-72
2022/12/20 04:39:15;;;;;;;5.47;3.20;;;;;;;5.62;56.58;101104.47;4990463;28;20046;-72
2022/12/20 04:42:04;;;;;;;4.25;2.67;;;;;;;5.60;56.16;101102.84;4991193;28;20061;-72
2022/12/20 04:44:31;;;;;;;5.18;2.92;;;;;;;5.59;56.32;101106.53;4992697;28;20045;-72
2022/12/20 04:46:59;;;;;;;5.75;3.65;;;;;;;5.56;56.37;101093.13;4988742;28;20038;-72
2022/12/20 04:49:28;;;;;;;5.25;3.13;;;;;;;5.54;56.37;101089.66;4994003;28;20096;-72
2022/12/20 04:53:46;;;;;;;5.20;2.70;;;;;;;5.53;56.44;101086.06;4996664;28;20413;-72
2022/12/20 04:54:46;;;;;;;4.47;2.78;;;;;;;5.50;56.30;101080.81;5000016;28;20061;-72
2022/12/20 04:57:19;;;;;;;5.03;3.20;;;;;;;5.50;56.32;101088.09;4982475;28;20046;-71
2022/12/20 04:59:47;;;;;;;4.65;3.40;;;;;;;5.49;56.38;101075.50;4987988;28;20038;-72
2022/12/20 05:02:15;;;;;;;5.72;3.08;;;;;;;5.46;56.78;101071.13;4987558;28;20048;-72
2022/12/20 05:04:50;;;;;;;5.47;3.20;;;;;;;5.45;56.58;101077.53;4988320;28;20049;-73
2022/12/20 05:07:20;;;;;;;5.15;3.38;;;;;;;5.47;56.83;101074.72;4993306;28;20514;-72
2022/12/20 05:09:52;;;;;;;6.00;3.22;;;;;;;5.44;56.76;101073.06;4996017;28;20041;-72
2022/12/20 05:12:20;;;;;;;4.25;2.80;;;;;;;5.44;56.63;101058.63;4997632;28;20104;-72
2022/12/20 05:14:47;;;;;;;5.85;3.10;;;;;;;5.44;56.78;101053.19;4992585;28;20446;-72
2022/12/20 05:17:19;;;;;;;5.07;2.85;;;;;;;5.43;56.60;101049.63;4993302;28;20046;-72
2022/12/20 05:19:47;;;;;;;5.95;2.88;;;;;;;5.43;56.62;101057.75;4993271;28;20038;-71
2022/12/20 05:27:57;;;;;;;5.25;2.88;;;;;;;5.40;56.93;101040.78;4950965;28;20049;-71
2022/12/20 05:30:28;;;;;;;6.07;3.47;;;;;;;5.43;56.79;101043.31;4982500;28;20503;-71
2022/12/20 05:32:56;;;;;;;5.22;2.95;;;;;;;5.43;56.77;101038.75;4993401;28;20040;-72
2022/12/20 05:35:25;;;;;;;6.45;3.30;;;;;;;5.45;56.93;101041.38;4990394;28;20072;-72
2022/12/20 05:38:00;;;;;;;4.15;2.67;;;;;;;5.44;56.94;101028.78;4989382;28;20050;-72
2022/12/20 05:40:29;;;;;;;5.45;3.05;;;;;;;5.46;57.15;101030.41;4989667;28;20096;-72
2022/12/20 05:42:58;;;;;;;4.75;3.10;;;;;;;5.46;56.86;101027.69;4999146;28;20588;-69
2022/12/20 05:45:35;;;;;;;4.18;2.97;;;;;;;5.46;56.80;101026.84;4990691;28;20049;-70
2022/12/20 05:48:08;;;;;;;4.18;2.80;;;;;;;5.48;56.88;101030.31;4988312;28;20043;-71
2022/12/20 05:50:39;;;;;;;5.15;3.10;;;;;;;5.48;56.83;101016.75;4990176;28;20045;-70
2022/12/20 05:53:28;;;;;;;4.00;2.70;;;;;;;5.46;56.98;101024.97;4986098;28;20135;-71
2022/12/20 05:56:01;;;;;;;4.63;2.70;;;;;;;5.50;56.86;101028.38;4994775;28;20042;-71
2022/12/20 05:58:32;;;;;;;;;;;;;;;5.21;59.64;101012.09;4992889;28;20061;-70
2022/12/20 06:01:02;;;;;;;3.75;2.40;;;;;;;5.45;56.87;101014.25;4988711;28;20229;-72
2022/12/20 06:03:34;;;;;;;4.95;2.60;;;;;;;5.47;56.89;101009.56;4982351;28;20069;-70
2022/12/20 06:06:07;;;;;;;4.28;2.63;;;;;;;5.51;56.88;101012.00;4990323;28;20045;-70
2022/12/20 06:08:41;;;;;;;4.93;2.65;;;;;;;5.51;56.81;101012.00;4990205;28;20382;-70
2022/12/20 06:11:15;;;;;;;4.72;2.50;;;;;;;5.53;57.03;101014.63;4990650;28;20054;-70
2022/12/20 06:13:49;;;;;;;5.25;2.50;;;;;;;5.52;56.71;101018.31;4977354;28;20042;-70
2022/12/20 06:16:19;;;;;;;4.93;3.10;;;;;;;5.53;56.87;101020.03;4984757;28;20396;-70
2022/12/20 06:18:47;;;;;;;4.30;2.38;;;;;;;5.55;56.66;101018.09;4989186;28;20069;-70
2022/12/20 06:21:16;;;;;;;4.15;2.47;;;;;;;5.55;57.07;101015.38;4976876;28;20065;-70
2022/12/20 06:23:45;;;;;;;4.82;3.00;;;;;;;5.57;56.97;101008.00;4991991;28;20128;-71
2022/12/20 06:26:15;;;;;;;5.53;2.88;;;;;;;5.58;57.34;101009.75;4984642;28;20042;-70
2022/12/20 06:28:51;;;;;;;5.85;3.38;;;;;;;5.58;56.88;101001.59;4998735;28;20145;-65
2022/12/20 06:31:27;;;;;;;5.07;2.80;;;;;;;5.59;57.14;101006.06;4997049;28;20054;-69
2022/12/20 06:33:56;;;;;;;4.97;2.70;;;;;;;5.61;56.98;101009.56;4991865;28;20124;-69
2022/12/20 06:36:27;;;;;;;4.20;2.40;;;;;;;5.62;57.04;101014.88;4989899;28;20041;-71
2022/12/20 06:38:55;;;;;;;5.78;2.90;;;;;;;5.64;57.22;101001.19;4989909;28;20048;-71
2022/12/20 06:41:25;;;;;;;3.92;2.70;;;;;;;5.67;57.04;101001.88;4990586;28;20038;-71
2022/12/20 06:43:53;;;;;;;4.65;2.72;;;;;;;5.67;56.86;100995.59;4987479;28;20045;-70
2022/12/20 06:46:21;;;;;;;3.97;2.85;;;;;;;5.68;56.80;100987.34;4998030;28;20145;-71
2022/12/20 06:48:50;;;;;;;4.38;2.70;;;;;;;5.71;56.95;100982.69;4990924;28;20054;-71
2022/12/20 06:51:18;;;;;;;7.00;2.95;;;;;;;5.74;56.70;100977.03;4988984;28;20469;-71
2022/12/20 06:53:47;;;;;;;4.18;2.65;;;;;;;5.76;56.70;100973.25;4991319;28;20044;-71
2022/12/20 06:56:15;;;;;;;3.60;2.55;;;;;;;5.78;56.89;100976.75;4989133;28;20045;-71
2022/12/20 06:58:45;;;;;;;4.30;2.90;;;;;;;5.80;57.02;100980.22;5002787;28;20121;-71
2022/12/20 07:01:13;;;;;;;6.40;2.95;;;;;;;5.78;56.85;100976.75;4991295;28;20064;-71
2022/12/20 07:03:41;;;;;;;5.22;2.63;;;;;;;5.79;56.91;100978.47;4984202;28;20070;-71
2022/12/20 07:06:09;;;;;;;4.22;2.80;;;;;;;5.81;56.75;100968.38;5004733;28;20112;-71
2022/12/20 07:08:36;;;;;;;3.50;2.47;;;;;;;5.82;56.90;100972.84;5007980;28;20045;-71
2022/12/20 07:11:06;;;;;;;4.38;2.70;;;;;;;5.83;57.25;100962.84;5006015;28;20042;-71
2022/12/20 07:13:34;;;;;;;4.35;2.55;;;;;;;5.83;57.00;100966.44;4988976;28;20049;-71
2022/12/20 07:16:04;;;;;;;3.58;2.40;;;;;;;5.85;57.36;100975.38;5006777;28;20050;-71
2022/12/20 07:18:35;;;;;;;4.65;2.38;;;;;;;5.86;56.95;100968.97;5008144;28;20137;-71
2022/12/20 07:21:05;;;;;;;4.45;2.40;;;;;;;5.87;56.95;100967.13;5003461;28;20057;-71
2022/12/20 07:23:33;;;;;;;4.35;2.50;;;;;;;5.86;57.11;100959.94;4988507;28;20315;-71
2022/12/20 07:26:04;;;;;;;4.90;3.05;;;;;;;5.87;56.79;100962.53;4987690;28;20042;-71
2022/12/20 07:28:33;;;;;;;4.28;2.40;;;;;;;5.87;56.97;100964.41;5006674;28;20516;-72
2022/12/20 07:31:03;;;;;;;5.03;2.78;;;;;;;5.89;56.79;100954.28;5006823;28;20238;-71
2022/12/20 07:33:31;;;;;;;5.30;2.95;;;;;;;5.89;56.71;100954.28;4989237;28;20151;-71
2022/12/20 07:36:03;;;;;;;4.50;2.58;;;;;;;5.90;57.25;100943.34;4996608;28;20309;-71
2022/12/20 07:38:31;;;;;;;4.47;2.72;;;;;;;5.87;56.51;100943.53;4999039;28;20132;-71
2022/12/20 07:40:59;;;;;;;5.15;2.90;;;;;;;5.88;56.67;100945.28;4988763;28;20171;-72
2022/12/20 07:43:27;;;;;;;4.78;3.00;;;;;;;5.89;56.68;100957.88;5007042;28;20133;-72
2022/12/20 07:45:56;;;;;;;4.57;2.60;;;;;;;5.88;56.72;100948.00;5005353;28;20272;-71
2022/12/20 07:48:26;;;;;;;4.28;2.70;;;;;;;5.92;56.92;100951.38;5005242;28;20123;-72
2022/12/20 07:50:57;;;;;;;3.85;2.65;;;;;;;5.91;56.98;100949.63;4989771;28;20442;-71
2022/12/20 07:53:28;;;;;;;5.80;2.53;;;;;;;5.92;57.01;100945.97;5000059;28;20046;-71
2022/12/20 07:55:58;;;;;;;5.43;2.67;;;;;;;5.92;57.00;100951.38;4989335;28;20042;-71
2022/12/20 07:58:27;;;;;;;3.78;2.53;;;;;;;5.91;56.76;100955.06;5014368;28;20045;-72
2022/12/20 08:00:56;;;;;;;5.03;2.50;;;;;;;5.92;56.83;100965.84;5006160;28;20522;-72
2022/12/20 08:03:31;;;;;;;4.00;2.45;;;;;;;5.95;57.44;100972.94;4984583;28;20042;-72
2022/12/20 08:06:03;;;;;;;4.53;2.60;;;;;;;5.93;56.67;100964.00;4984773;28;20582;-69
2022/12/20 08:08:32;;;;;;;4.05;2.53;;;;;;;5.94;56.68;100955.75;4990346;28;20069;-72
2022/12/20 08:11:02;;;;;;;4.40;2.72;;;;;;;5.95;56.70;100954.75;5003142;28;20108;-72
2022/12/20 08:13:34;;;;;;;4.13;2.60;;;;;;;5.95;56.69;100956.63;5084701;23;20052;-81
2022/12/20 08:16:09;;;;;;;4.70;2.35;;;;;;;5.94;56.56;100953.03;5030913;28;20041;-79
2022/12/20 08:18:38;;;;;;;3.88;2.42;;;;;;;5.97;56.76;100954.66;5024709;28;20046;-81
2022/12/20 08:21:09;;;;;;;4.65;2.42;;;;;;;5.96;56.51;100967.38;5027806;28;20052;-80
2022/12/20 08:23:37;;;;;;;4.32;2.58;;;;;;;5.97;56.68;100960.09;5049210;28;20032;-81
2022/12/20 08:26:05;;;;;;;5.03;2.65;;;;;;;5.96;56.72;100963.78;5041289;28;20059;-81
2022/12/20 08:28:33;;;;;;;4.70;2.55;;;;;;;5.98;57.01;100950.97;5049528;28;20044;-82
2022/12/20 08:31:02;;;;;;;4.45;2.47;;;;;;;5.98;57.03;100943.69;5053156;28;20158;-81
2022/12/20 08:33:34;;;;;;;4.07;2.53;;;;;;;5.98;56.86;100940.09;5057905;28;20045;-81
2022/12/20 08:36:08;;;;;;;4.53;2.70;;;;;;;6.01;56.84;100926.31;5064529;28;20045;-81
2022/12/20 08:38:39;;;;;;;5.13;3.10;;;;;;;6.02;57.05;100934.38;5066154;28;20048;-83
2022/12/20 08:41:09;;;;;;;3.95;2.38;;;;;;;6.03;56.97;100946.13;5049735;28;20049;-83
2022/12/20 08:43:38;;;;;;;4.47;2.45;;;;;;;6.03;56.69;100952.44;5047879;28;20033;-80
2022/12/20 08:46:06;;;;;;;5.50;2.47;;;;;;;6.04;56.66;100946.00;5049067;28;20044;-79
2022/12/20 08:48:34;;;;;;;5.43;2.40;;;;;;;6.05;56.72;100944.16;5048484;28;20551;-82
2022/12/20 08:51:07;;;;;;;3.97;2.42;;;;;;;6.04;57.02;100948.69;5040139;28;20045;-81
2022/12/20 08:53:36;;;;;;;4.80;3.10;;;;;;;6.03;57.08;100949.72;5044952;28;20139;-82
2022/12/20 08:56:06;;;;;;;5.20;2.70;;;;;;;6.05;57.01;100942.31;5045535;28;20032;-81
2022/12/20 08:58:34;;;;;;;3.67;2.42;;;;;;;6.07;56.68;100939.50;5044676;28;20068;-81
2022/12/20 09:01:05;;;;;;;4.47;2.55;;;;;;;6.09;57.08;100939.38;5039811;28;20045;-82
2022/12/20 09:03:35;;;;;;;4.97;2.45;;;;;;;6.10;56.84;100942.00;5051944;28;20063;-81
2022/12/20 09:06:07;;;;;;;4.20;2.17;;;;;;;6.12;57.11;100939.19;5044059;28;20052;-81
2022/12/20 09:08:36;;;;;;;4.85;2.85;;;;;;;6.10;57.15;100939.28;5046593;28;20132;-81
2022/12/20 09:11:06;;;;;;;4.30;2.63;;;;;;;6.14;56.85;100939.94;5051209;28;20399;-81
2022/12/20 09:13:38;;;;;;;4.82;2.42;;;;;;;6.16;56.70;100938.00;5047920;28;20136;-80
2022/12/20 09:16:15;;;;;;;4.82;2.67;;;;;;;6.16;57.12;100938.00;5074752;28;20044;-80
2022/12/20 09:18:44;;;;;;;4.93;2.80;;;;;;;6.16;56.83;100938.88;5049377;28;20139;-80
2022/12/20 09:21:13;;;;;;;6.22;2.90;;;;;;;6.20;56.84;100944.97;5059754;28;20045;-79
2022/12/20 09:23:41;;;;;;;5.07;2.90;;;;;;;6.20;56.94;100929.50;5077866;28;20037;-81
2022/12/20 09:26:12;;;;;;;5.47;2.60;;;;;;;6.23;57.10;100929.31;5051731;28;20048;-79
2022/12/20 09:28:40;;;;;;;5.22;3.10;;;;;;;6.24;56.96;100941.06;5052089;28;20052;-80
2022/12/20 09:31:11;;;;;;;4.45;2.60;;;;;;;6.27;56.96;100943.59;5062141;28;20452;-80
2022/12/20 09:33:39;;;;;;;3.65;2.40;;;;;;;6.27;56.91;100944.47;5056724;28;20044;-80
2022/12/20 09:36:11;;;;;;;4.45;2.67;;;;;;;6.30;57.18;100944.22;5051485;28;20044;-80
2022/12/20 09:38:40;;;;;;;5.10;2.70;;;;;;;6.31;57.39;100948.69;5053175;28;20124;-80
2022/12/20 09:41:19;;;;;;;6.30;2.67;;;;;;;6.33;56.82;100938.59;5053324;28;20526;-81
2022/12/20 09:43:49;;;;;;;5.88;3.00;;;;;;;6.32;56.81;100931.41;5046094;28;20065;-81
2022/12/20 09:46:18;;;;;;;4.70;2.33;;;;;;;6.37;57.14;100941.94;5050767;28;20036;-80
2022/12/20 09:48:47;;;;;;;4.75;2.55;;;;;;;6.38;56.71;100933.69;5048498;28;20438;-80
2022/12/20 09:51:26;;;;;;;5.05;2.50;;;;;;;6.41;57.49;100936.22;5047910;28;20063;-81
2022/12/20 09:54:07;;;;;;;4.40;2.35;;;;;;;6.42;57.81;100934.38;5045803;28;20570;-82
2022/12/20 09:56:40;;;;;;;3.75;2.40;;;;;;;6.42;56.74;100927.09;5043703;28;20047;-82
2022/12/20 09:59:12;;;;;;;6.13;2.50;;;;;;;6.43;57.55;100936.13;5052957;28;20141;-81
2022/12/20 10:01:44;;;;;;;3.88;2.30;;;;;;;6.44;57.07;100940.56;5065591;28;20136;-81
2022/12/20 10:04:18;;;;;;;4.75;2.70;;;;;;;6.46;57.46;100927.72;5046126;28;20037;-81
2022/12/20 10:06:57;;;;;;;4.55;2.70;;;;;;;6.49;57.56;100932.09;5075075;28;20078;-81
2022/12/20 10:09:42;;;;;;;3.53;2.42;;;;;;;6.50;58.30;100933.84;5050078;28;20115;-81
2022/12/20 10:12:20;;;;;;;3.35;2.20;;;;;;;6.51;57.72;100935.59;5051765;28;20132;-81
2022/12/20 10:15:00;;;;;;;3.90;2.20;;;;;;;6.53;57.52;100930.91;5047297;28;20132;-81
2022/12/20 10:17:46;;;;;;;4.30;2.42;;;;;;;6.53;57.74;100918.16;5051501;28;20558;-82
2022/12/20 10:20:41;;;;;;;4.88;2.30;;;;;;;6.54;58.16;100917.19;5038963;28;20127;-82
2022/12/20 10:23:17;;;;;;;4.88;2.50;;;;;;;6.54;57.67;100919.91;5052087;28;20045;-83
2022/12/20 10:25:47;;;;;;;3.13;2.13;;;;;;;6.55;57.43;100912.63;5043055;28;20050;-82
2022/12/20 10:28:16;;;;;;;4.57;2.30;;;;;;;6.55;57.29;100908.06;5063962;28;20037;-83
2022/12/20 10:30:44;;;;;;;4.20;2.20;;;;;;;6.55;57.35;100907.19;5048305;28;20059;-83
2022/12/20 10:33:19;;;;;;;4.72;2.50;;;;;;;6.57;57.85;100902.50;5046325;28;20053;-82
2022/12/20 10:35:47;;;;;;;4.47;2.50;;;;;;;6.56;57.30;100889.91;5046957;28;20045;-82
2022/12/20 10:38:17;;;;;;;4.15;2.65;;;;;;;6.57;57.04;100892.50;5048382;28;20053;-81
2022/12/20 10:40:48;;;;;;;5.75;2.63;;;;;;;6.58;57.49;100888.81;5040375;28;20098;-81
2022/12/20 10:43:42;;;;;;;4.07;2.40;;;;;;;6.58;57.69;100886.09;5040770;28;20047;-82
2022/12/20 10:46:12;;;;;;;4.15;2.60;;;;;;;6.60;57.61;100894.16;5039733;28;20175;-81
2022/12/20 10:48:41;;;;;;;4.25;2.30;;;;;;;6.60;57.52;100878.72;5041155;28;20067;-81
2022/12/20 10:51:16;;;;;;;4.30;2.50;;;;;;;6.64;58.11;100871.19;5043835;28;20069;-80
2022/12/20 10:53:52;;;;;;;4.30;2.50;;;;;;;6.65;58.52;100868.38;5060795;28;20088;-81
2022/12/20 10:56:26;;;;;;;3.95;2.30;;;;;;;6.65;57.50;100865.66;5043814;28;20470;-82
2022/12/20 10:58:58;;;;;;;3.60;2.30;;;;;;;6.67;58.08;100863.69;5040737;28;20059;-81
2022/12/20 11:01:30;;;;;;;3.33;2.10;;;;;;;6.70;57.92;100866.19;5045437;28;20072;-83
2022/12/20 11:04:00;;;;;;;4.22;2.22;;;;;;;6.68;57.84;100861.84;5058755;28;20496;-81
2022/12/20 11:06:40;;;;;;;3.40;2.17;;;;;;;6.73;57.62;100855.09;5050025;28;20477;-81
2022/12/20 11:09:33;;;;;;;3.28;2.20;;;;;;;6.73;58.54;100855.09;5056114;28;20057;-80
2022/12/20 11:12:06;;;;;;;4.30;2.25;;;;;;;6.78;57.84;100849.34;5026193;28;20049;-80
2022/12/20 11:14:36;;;;;;;4.63;2.40;;;;;;;6.79;57.65;100845.63;5047178;28;20124;-80
2022/12/20 11:17:21;;;;;;;4.18;2.30;;;;;;;6.83;58.44;100841.75;5070403;28;20656;-80
2022/12/20 11:20:02;;;;;;;4.25;2.10;;;;;;;6.85;58.01;100838.91;5039594;28;20037;-79
2022/12/20 11:22:41;;;;;;;5.10;2.45;;;;;;;6.88;58.13;100835.94;5040069;28;20504;-80
2022/12/20 11:25:24;;;;;;;4.43;2.30;;;;;;;6.90;58.00;100832.16;5047367;28;20052;-80
2022/12/20 11:28:08;;;;;;;5.40;2.38;;;;;;;6.89;58.22;100830.41;5048014;28;20563;-81
2022/12/20 11:30:43;;;;;;;4.07;2.20;;;;;;;6.90;58.03;100837.59;5043932;28;20063;-79
2022/12/20 11:33:29;;;;;;;3.88;2.20;;;;;;;6.94;57.95;100836.38;5035413;28;20411;-80
2022/12/20 11:36:03;;;;;;;5.47;2.38;;;;;;;6.93;57.58;100831.94;5051497;28;20040;-80
2022/12/20 11:38:41;;;;;;;5.07;2.42;;;;;;;6.97;58.11;100832.56;5054180;28;20097;-80
2022/12/20 11:41:18;;;;;;;3.88;2.50;;;;;;;6.98;57.63;100831.59;5045653;28;20086;-80
2022/12/20 11:44:05;;;;;;;4.28;2.40;;;;;;;7.00;57.86;100826.91;5046749;28;20229;-79
2022/12/20 11:47:07;;;;;;;3.55;2.40;;;;;;;7.02;58.19;100812.22;5041833;28;20045;-80
2022/12/20 11:50:03;;;;;;;4.88;2.50;;;;;;;7.02;58.01;100808.63;5035125;28;20072;-80
2022/12/20 11:52:36;;;;;;;3.72;2.13;;;;;;;7.04;57.77;100803.91;5033931;28;20048;-80
2022/12/20 11:55:19;;;;;;;4.65;2.20;;;;;;;7.06;57.33;100794.66;5046896;28;20061;-79
2022/12/20 11:57:57;;;;;;;4.95;2.58;;;;;;;7.05;57.83;100792.91;5050303;28;20501;-80
2022/12/20 12:00:53;;;;;;;3.78;2.17;;;;;;;7.09;57.94;100794.44;5042421;28;20048;-80
2022/12/20 12:03:30;;;;;;;5.22;2.60;;;;;;;7.10;57.86;100796.19;5050199;28;20052;-81
2022/12/20 12:06:03;;;;;;;3.80;2.38;;;;;;;7.11;57.09;100797.91;5046369;28;20067;-81